createdAt,value
2019-02-06T00:00:09.671Z,11.38
2019-02-06T00:06:04.695Z,8.71
2019-02-06T00:11:59.671Z,7.53
2019-02-06T00:17:54.668Z,7.52
2019-02-06T00:23:49.665Z,6.9
2019-02-06T00:29:44.764Z,8.64
2019-02-06T00:35:39.681Z,4.08
2019-02-06T00:41:34.732Z,4.37
2019-02-06T00:47:29.735Z,5.65
2019-02-06T00:53:24.683Z,3.73
2019-02-06T00:59:19.698Z,5.59
2019-02-06T01:05:14.759Z,3.61
2019-02-06T01:11:09.752Z,4.84
2019-02-06T01:17:04.727Z,4.04
2019-02-06T01:22:59.700Z,3.63
2019-02-06T01:28:54.822Z,3.93
2019-02-06T01:34:49.777Z,3.2
2019-02-06T01:40:44.742Z,5.23
2019-02-06T01:46:39.734Z,4.84
2019-02-06T01:52:34.773Z,5.67
2019-02-06T01:58:29.753Z,3.04
2019-02-06T02:04:24.764Z,4.38
2019-02-06T02:10:19.790Z,3.99
2019-02-06T02:16:14.758Z,8.31
2019-02-06T02:22:09.801Z,7.1
2019-02-06T02:28:04.763Z,4.9
2019-02-06T02:33:59.786Z,3.75
2019-02-06T02:39:54.834Z,8.5
2019-02-06T02:45:49.791Z,4.74
2019-02-06T02:51:44.802Z,3.7
2019-02-06T02:57:39.840Z,2.59
2019-02-06T03:03:34.813Z,5.98
2019-02-06T03:09:29.822Z,4.28
2019-02-06T03:15:24.822Z,5.51
2019-02-06T03:21:19.809Z,4.77
2019-02-06T03:27:14.806Z,4.26
2019-02-06T03:33:09.892Z,3.69
2019-02-06T03:39:04.841Z,5.37
2019-02-06T03:44:59.854Z,5.2
2019-02-06T03:50:54.852Z,4.74
2019-02-06T03:56:49.901Z,3.51
2019-02-06T04:02:44.888Z,4.48
2019-02-06T04:08:39.856Z,6.26
2019-02-06T04:14:34.861Z,4.69
2019-02-06T04:20:29.901Z,5.79
2019-02-06T04:26:24.878Z,4.38
2019-02-06T04:32:19.871Z,4.64
2019-02-06T04:38:14.874Z,4.69
2019-02-06T04:44:09.929Z,4.8
2019-02-06T04:50:04.879Z,3.83
2019-02-06T04:55:59.927Z,3.7
2019-02-06T05:01:54.903Z,3.64
2019-02-06T05:07:49.897Z,3.68
2019-02-06T05:13:44.950Z,3.3
2019-02-06T05:19:39.944Z,3.06
2019-02-06T05:25:34.955Z,4.12
2019-02-06T05:31:29.943Z,4.22
2019-02-06T05:37:31.867Z,3.77
2019-02-06T05:43:19.945Z,3.83
2019-02-06T05:49:14.942Z,3.32
2019-02-06T05:55:09.940Z,3.59
2019-02-06T06:01:04.950Z,2.74
2019-02-06T06:06:59.950Z,5.77
2019-02-06T06:12:54.979Z,3.2
2019-02-06T06:18:49.970Z,4.88
2019-02-06T06:24:44.947Z,5.16
2019-02-06T06:30:40.005Z,3.57
2019-02-06T06:36:35.028Z,6.63
2019-02-06T06:42:30.001Z,5.78
2019-02-06T06:48:25.008Z,5.98
2019-02-06T06:54:19.984Z,6.04
2019-02-06T07:00:15.025Z,5.75
2019-02-06T07:06:10.039Z,5.78
2019-02-06T07:12:05.002Z,3.71
2019-02-06T07:18:00.044Z,6.14
2019-02-06T07:23:55.176Z,7.71
2019-02-06T07:29:50.071Z,5.57
2019-02-06T07:35:45.028Z,4.39
2019-02-06T07:41:40.024Z,4.73
2019-02-06T07:47:35.043Z,5.63
2019-02-06T07:53:30.105Z,7.68
2019-02-06T07:59:25.098Z,6.61
2019-02-06T08:05:20.079Z,6.49
2019-02-06T08:11:15.089Z,6.04
2019-02-06T08:17:10.075Z,7.69
2019-02-06T08:23:05.074Z,7.11
2019-02-06T08:29:00.161Z,5.69
2019-02-06T08:34:55.069Z,10.07
2019-02-06T08:40:50.086Z,4.98
2019-02-06T08:46:45.112Z,6.25
2019-02-06T08:52:40.091Z,5.17
2019-02-06T08:58:35.100Z,5.23
2019-02-06T09:04:30.120Z,4.63
2019-02-06T09:10:25.135Z,5.41
2019-02-06T09:16:20.144Z,4.27
2019-02-06T09:22:15.126Z,3.03
2019-02-06T09:28:10.112Z,4.07
2019-02-06T09:34:05.173Z,3.83
2019-02-06T09:40:00.360Z,4.33
2019-02-06T09:45:57.042Z,7.21
2019-02-06T09:51:50.118Z,6.91
2019-02-06T09:57:45.183Z,5.99
2019-02-06T10:03:40.159Z,5.68
2019-02-06T10:09:35.232Z,5.68
2019-02-06T10:15:30.143Z,10.41
2019-02-06T10:21:25.177Z,9.43
2019-02-06T10:27:20.181Z,6.74
2019-02-06T10:33:15.173Z,9.94
2019-02-06T10:39:10.187Z,6.6
2019-02-06T10:45:05.242Z,7.4
2019-02-06T10:51:00.165Z,8.98
2019-02-06T10:56:55.234Z,5.13
2019-02-06T11:02:50.202Z,7.48
2019-02-06T11:08:45.222Z,6.49
2019-02-06T11:14:40.221Z,5.83
2019-02-06T11:20:35.218Z,6.75
2019-02-06T11:26:30.213Z,7.49
2019-02-06T11:32:25.222Z,6.76
2019-02-06T11:38:20.250Z,4.52
2019-02-06T11:44:15.296Z,10.93
2019-02-06T11:50:10.248Z,7.59
2019-02-06T11:56:05.251Z,6.97
2019-02-06T12:02:00.254Z,8.44
2019-02-06T12:07:55.250Z,7.75
2019-02-06T12:13:50.253Z,8.47
2019-02-06T12:19:45.275Z,6.77
2019-02-06T12:25:40.271Z,6.72
2019-02-06T12:31:35.284Z,6.43
2019-02-06T12:37:30.286Z,5.19
2019-02-06T12:43:25.303Z,7.1
2019-02-06T12:49:20.321Z,9.5
2019-02-06T12:55:15.314Z,7.37
2019-02-06T13:01:10.311Z,7.41
2019-02-06T13:07:05.307Z,6.01
2019-02-06T13:13:00.381Z,4.83
2019-02-06T13:18:55.354Z,6
2019-02-06T13:24:50.345Z,6.58
2019-02-06T13:30:45.372Z,5.38
2019-02-06T13:36:40.378Z,4.94
2019-02-06T13:42:35.374Z,6.7
2019-02-06T13:48:33.429Z,7.77
2019-02-06T13:54:25.348Z,4.83
2019-02-06T14:00:20.370Z,4.86
2019-02-06T14:06:15.389Z,5.78
2019-02-06T14:12:13.177Z,3.69
2019-02-06T14:18:05.425Z,4.24
2019-02-06T14:24:00.382Z,4.22
2019-02-06T14:29:55.419Z,6.23
2019-02-06T14:35:50.409Z,5.93
2019-02-06T14:41:45.411Z,4.47
2019-02-06T14:47:40.427Z,5.55
2019-02-06T14:53:35.441Z,5.52
2019-02-06T14:59:30.478Z,5.15
2019-02-06T15:05:25.516Z,6.11
2019-02-06T15:11:22.077Z,6.98
2019-02-06T15:17:15.463Z,5.83
2019-02-06T15:23:10.476Z,6.33
2019-02-06T15:29:05.462Z,7.88
2019-02-06T15:35:00.471Z,5.82
2019-02-06T15:40:55.466Z,5.41
2019-02-06T15:46:50.473Z,6.14
2019-02-06T15:52:45.496Z,6.93
2019-02-06T15:58:40.501Z,7.48
2019-02-06T16:04:35.497Z,11.08
2019-02-06T16:10:30.490Z,9.66
2019-02-06T16:16:25.509Z,8.94
2019-02-06T16:22:20.494Z,8.6
2019-02-06T16:28:15.516Z,10.67
2019-02-06T16:34:10.511Z,10.79
2019-02-06T16:40:05.523Z,9
2019-02-06T16:46:00.547Z,7.94
2019-02-06T16:51:55.561Z,9.4
2019-02-06T16:57:50.537Z,10.24
2019-02-06T17:03:45.527Z,10.34
2019-02-06T17:09:40.554Z,10.66
2019-02-06T17:15:35.555Z,11.68
2019-02-06T17:21:30.555Z,12.5
2019-02-06T17:27:25.584Z,13.63
2019-02-06T17:33:20.575Z,8.94
2019-02-06T17:39:23.751Z,10.16
2019-02-06T17:45:10.646Z,8.47
2019-02-06T17:51:05.601Z,6.43
2019-02-06T17:57:00.591Z,8.91
2019-02-06T18:02:55.639Z,8.3
2019-02-06T18:08:56.574Z,7.31
2019-02-06T18:14:45.610Z,9.71
2019-02-06T18:20:40.615Z,6.23
2019-02-06T18:26:35.640Z,5.77
2019-02-06T18:32:30.609Z,10.27
2019-02-06T18:38:25.630Z,7.52
2019-02-06T18:44:20.650Z,7.26
2019-02-06T18:50:15.623Z,9.21
2019-02-06T18:56:10.649Z,13.57
2019-02-06T19:02:05.696Z,7.76
2019-02-06T19:08:00.645Z,6.92
2019-02-06T19:13:58.175Z,7.6
2019-02-06T19:19:50.665Z,8.8
2019-02-06T19:25:45.663Z,6.8
2019-02-06T19:31:40.676Z,11.46
2019-02-06T19:37:35.668Z,5.26
2019-02-06T19:43:30.678Z,6.27
2019-02-06T19:49:25.674Z,10.04
2019-02-06T19:55:20.669Z,8.64
2019-02-06T20:01:15.721Z,6.42
2019-02-06T20:07:10.713Z,5.76
2019-02-06T20:13:10.794Z,8.45
2019-02-06T20:19:00.725Z,6.41
2019-02-06T20:24:55.730Z,6.75
2019-02-06T20:30:50.773Z,6.47
2019-02-06T20:36:45.777Z,6.87
2019-02-06T20:42:40.728Z,4.99
2019-02-06T20:48:35.769Z,5.21
2019-02-06T20:54:30.791Z,4.24
2019-02-06T21:00:25.760Z,6.14
2019-02-06T21:06:20.748Z,5.78
2019-02-06T21:12:15.753Z,6.74
2019-02-06T21:18:10.762Z,6.12
2019-02-06T21:24:05.859Z,4.14
2019-02-06T21:30:00.795Z,4.25
2019-02-06T21:35:55.767Z,6.03
2019-02-06T21:41:50.786Z,5.43
2019-02-06T21:47:45.803Z,5.09
2019-02-06T21:53:40.819Z,4.83
2019-02-06T21:59:35.809Z,5.07
2019-02-06T22:05:30.790Z,3.48
2019-02-06T22:11:25.830Z,3.35
2019-02-06T22:17:20.884Z,4.06
2019-02-06T22:23:15.821Z,3.47
2019-02-06T22:29:10.835Z,2.49
2019-02-06T22:35:05.867Z,3.45
2019-02-06T22:41:00.885Z,4.03
2019-02-06T22:46:55.838Z,3.59
2019-02-06T22:52:50.858Z,3.03
2019-02-06T22:58:45.867Z,4.59
2019-02-06T23:04:40.850Z,3.09
2019-02-06T23:10:36.845Z,2.98
2019-02-06T23:16:30.881Z,3.69
2019-02-06T23:22:25.920Z,3.56
2019-02-06T23:28:20.907Z,4.69
2019-02-06T23:34:15.927Z,3.42
2019-02-06T23:40:10.876Z,3.48
2019-02-06T23:46:05.908Z,3.3
2019-02-06T23:52:00.911Z,4.35
2019-02-06T23:57:55.941Z,2.37
